Time;durP1;ratioP1;P1;durP2;ratioP2;P2;SDS_P1;SDS_P2;PMS_P1;PMS_P2;Temp;Humidity;BMP_temperature;BMP_pressure;BME280_temperature;BME280_humidity;BME280_pressure;Samples;Min_cycle;Max_cycle;Signal;HPM_P1;HPM_P2
2023/12/18 07:49:00;;;;;;;7.63;3.33;;;;;;;;;;2088595;28;20530;-58
2023/12/18 07:50:02;;;;;;;9.10;3.83;;;;;;;;;;2088375;28;20197;-59
2023/12/18 07:51:03;;;;;;;6.53;3.53;;;;;;;;;;2075956;28;20224;-59
2023/12/18 07:52:05;;;;;;;6.65;3.78;;;;;;;;;;2070230;28;20198;-59
2023/12/18 07:53:06;;;;;;;9.25;3.83;;;;;;;;;;2070527;28;20198;-59
2023/12/18 07:54:08;;;;;;;11.40;3.47;;;;;;;;;;2073937;28;20277;-59
2023/12/18 07:55:09;;;;;;;9.75;4.90;;;;;;;;;;2074369;28;20193;-60
2023/12/18 07:56:11;;;;;;;13.90;5.55;;;;;;;;;;2074732;28;20228;-59
2023/12/18 07:57:12;;;;;;;11.65;4.90;;;;;;;;;;2075752;28;20201;-59
2023/12/18 07:58:14;;;;;;;8.98;4.35;;;;;;;;;;2073455;28;20833;-59
2023/12/18 07:59:17;;;;;;;6.63;4.20;;;;;;;;;;2075888;28;20204;-59
2023/12/18 08:00:18;;;;;;;7.85;4.65;;;;;;;;;;2076161;28;20254;-61
2023/12/18 08:01:20;;;;;;;7.35;3.97;;;;;;;;;;2070307;28;20205;-60
2023/12/18 08:02:22;;;;;;;10.98;5.20;;;;;;;;;;2070680;28;20201;-60
2023/12/18 08:03:23;;;;;;;8.23;4.22;;;;;;;;;;2073963;28;20272;-60
2023/12/18 08:04:25;;;;;;;7.55;3.80;;;;;;;;;;2074281;28;20228;-60
2023/12/18 08:05:26;;;;;;;6.18;3.70;;;;;;;;;;2073001;28;20248;-60
2023/12/18 08:06:27;;;;;;;7.25;4.82;;;;;;;;;;2075436;28;20193;-60
2023/12/18 08:07:29;;;;;;;8.23;4.00;;;;;;;;;;2076205;28;20203;-60
2023/12/18 08:08:30;;;;;;;8.25;4.60;;;;;;;;;;2071232;28;20569;-60
2023/12/18 08:09:31;;;;;;;7.07;4.15;;;;;;;;;;2070150;28;20194;-60
2023/12/18 08:10:33;;;;;;;7.22;3.70;;;;;;;;;;2072582;28;20575;-60
2023/12/18 08:11:34;;;;;;;14.48;4.13;;;;;;;;;;2069163;28;20217;-60
2023/12/18 08:12:36;;;;;;;8.60;4.03;;;;;;;;;;2071072;28;20198;-60
2023/12/18 08:13:38;;;;;;;6.72;3.92;;;;;;;;;;2071387;28;20284;-60
2023/12/18 08:14:42;;;;;;;11.68;4.45;;;;;;;;;;2072172;28;20200;-61
2023/12/18 08:15:43;;;;;;;8.73;5.47;;;;;;;;;;2072024;28;20855;-60
2023/12/18 08:16:44;;;;;;;13.00;5.80;;;;;;;;;;2073113;28;20189;-60
2023/12/18 08:17:46;;;;;;;8.13;4.95;;;;;;;;;;2073772;28;20198;-60
2023/12/18 08:18:47;;;;;;;10.50;4.88;;;;;;;;;;2074342;28;20288;-60
2023/12/18 08:19:49;;;;;;;7.35;4.72;;;;;;;;;;2072706;28;20666;-60
2023/12/18 08:20:51;;;;;;;9.57;6.10;;;;;;;;;;2071692;28;20225;-60
2023/12/18 08:21:52;;;;;;;9.60;6.22;;;;;;;;;;2073912;28;20193;-60
2023/12/18 08:22:53;;;;;;;8.70;6.65;;;;;;;;;;2073545;28;20194;-60
2023/12/18 08:23:55;;;;;;;8.88;6.07;;;;;;;;;;2074711;28;20251;-60
2023/12/18 08:24:56;;;;;;;12.02;6.15;;;;;;;;;;2075568;28;20250;-61
2023/12/18 08:25:57;;;;;;;10.65;6.32;;;;;;;;;;2071643;28;20221;-61
2023/12/18 08:26:59;;;;;;;10.02;6.20;;;;;;;;;;2074891;28;20559;-61
2023/12/18 08:28:00;;;;;;;11.55;7.65;;;;;;;;;;2071932;28;20689;-61
2023/12/18 08:29:04;;;;;;;16.38;8.50;;;;;;;;;;2071631;28;20771;-61
2023/12/18 08:30:10;;;;;;;13.70;9.02;;;;;;;;;;2073009;28;20775;-61
2023/12/18 08:31:12;;;;;;;15.80;9.77;;;;;;;;;;2076755;28;20785;-61
2023/12/18 08:32:14;;;;;;;39.17;20.27;;;;;;;;;;2076812;28;20189;-62
2023/12/18 08:33:15;;;;;;;33.70;17.65;;;;;;;;;;2075434;28;20197;-61
2023/12/18 08:34:16;;;;;;;72.18;34.30;;;;;;;;;;2072505;28;20597;-62
2023/12/18 08:35:18;;;;;;;71.47;34.45;;;;;;;;;;2072542;28;20553;-62
2023/12/18 08:36:19;;;;;;;56.13;28.80;;;;;;;;;;2073669;28;20221;-62
2023/12/18 08:37:21;;;;;;;61.63;29.83;;;;;;;;;;2076166;28;20193;-61
2023/12/18 08:38:22;;;;;;;33.35;16.83;;;;;;;;;;2075450;28;20251;-61
2023/12/18 08:39:23;;;;;;;30.42;16.35;;;;;;;;;;2074298;28;20197;-61
2023/12/18 08:40:25;;;;;;;25.95;14.60;;;;;;;;;;2073231;28;20205;-62
2023/12/18 08:41:26;;;;;;;23.08;11.68;;;;;;;;;;2070152;28;20196;-67
2023/12/18 08:42:28;;;;;;;15.82;9.30;;;;;;;;;;2076005;28;20213;-70
2023/12/18 08:43:29;;;;;;;14.25;8.70;;;;;;;;;;2074052;28;20198;-69
2023/12/18 08:44:30;;;;;;;11.73;7.13;;;;;;;;;;2073796;28;20190;-69
2023/12/18 08:45:32;;;;;;;16.25;10.13;;;;;;;;;;2072241;28;20833;-69
2023/12/18 08:46:34;;;;;;;23.23;11.10;;;;;;;;;;2074122;28;20681;-69
2023/12/18 08:47:35;;;;;;;18.40;10.73;;;;;;;;;;2072532;28;20304;-69
2023/12/18 08:48:36;;;;;;;18.27;12.25;;;;;;;;;;2074693;28;20258;-70
2023/12/18 08:49:38;;;;;;;18.65;11.05;;;;;;;;;;2072649;28;20232;-70
2023/12/18 08:50:40;;;;;;;26.60;10.07;;;;;;;;;;2074120;28;20943;-70
2023/12/18 08:51:42;;;;;;;19.08;9.00;;;;;;;;;;2073502;28;20194;-70
2023/12/18 08:52:43;;;;;;;14.45;8.93;;;;;;;;;;2075150;28;20224;-70
2023/12/18 08:53:44;;;;;;;15.52;8.38;;;;;;;;;;2076463;28;20205;-70
2023/12/18 08:54:46;;;;;;;15.65;8.52;;;;;;;;;;2077419;28;20259;-70
2023/12/18 08:55:48;;;;;;;14.40;8.30;;;;;;;;;;2075770;28;20247;-71
2023/12/18 08:56:51;;;;;;;11.18;7.57;;;;;;;;;;2073407;28;20315;-70
2023/12/18 08:57:53;;;;;;;15.23;7.93;;;;;;;;;;2073098;28;20201;-71
2023/12/18 08:58:55;;;;;;;16.50;8.57;;;;;;;;;;2073675;28;20755;-71
2023/12/18 09:00:04;;;;;;;12.38;8.25;;;;;;;;;;2071050;28;20191;-71
2023/12/18 09:01:05;;;;;;;11.10;7.30;;;;;;;;;;2066377;28;20229;-62
2023/12/18 09:02:07;;;;;;;11.20;6.88;;;;;;;;;;2067572;28;20409;-62
2023/12/18 09:03:08;;;;;;;9.57;6.78;;;;;;;;;;2068324;28;20888;-62
2023/12/18 09:04:10;;;;;;;11.10;7.13;;;;;;;;;;2067580;28;20198;-62
2023/12/18 09:05:11;;;;;;;9.75;6.35;;;;;;;;;;2068639;28;20415;-62
2023/12/18 09:06:14;;;;;;;12.80;6.93;;;;;;;;;;2066092;28;20218;-62
2023/12/18 09:07:16;;;;;;;16.40;7.10;;;;;;;;;;2069563;28;20190;-62
2023/12/18 09:08:17;;;;;;;8.95;6.00;;;;;;;;;;2069777;28;20189;-63
2023/12/18 09:09:20;;;;;;;11.02;6.97;;;;;;;;;;2067169;28;20210;-62
2023/12/18 09:10:22;;;;;;;11.38;6.38;;;;;;;;;;2063445;28;20249;-63
2023/12/18 09:11:23;;;;;;;10.70;7.32;;;;;;;;;;2068331;28;20198;-62
2023/12/18 09:12:25;;;;;;;10.18;6.68;;;;;;;;;;2068502;28;20198;-62
2023/12/18 09:13:26;;;;;;;10.13;5.63;;;;;;;;;;2066860;28;20194;-63
2023/12/18 09:14:28;;;;;;;11.60;6.53;;;;;;;;;;2068054;28;20259;-63
2023/12/18 09:15:29;;;;;;;9.80;6.13;;;;;;;;;;2067320;28;20286;-63
2023/12/18 09:16:30;;;;;;;16.52;6.25;;;;;;;;;;2068408;28;20213;-63
2023/12/18 09:17:35;;;;;;;13.57;7.43;;;;;;;;;;2068461;28;20657;-63
2023/12/18 09:18:36;;;;;;;11.35;6.50;;;;;;;;;;2068160;28;20202;-63
2023/12/18 09:19:37;;;;;;;10.30;6.95;;;;;;;;;;2067318;28;20205;-63
2023/12/18 09:20:40;;;;;;;16.10;6.45;;;;;;;;;;2068713;28;20208;-63
2023/12/18 09:21:41;;;;;;;11.25;7.10;;;;;;;;;;2069468;28;20611;-63
2023/12/18 09:22:46;;;;;;;11.38;4.78;;;;;;;;;;2068538;28;20198;-63
2023/12/18 09:23:47;;;;;;;10.10;5.35;;;;;;;;;;2067837;28;20206;-63
2023/12/18 09:24:48;;;;;;;9.25;5.90;;;;;;;;;;2067164;28;20637;-63
2023/12/18 09:25:50;;;;;;;12.60;4.78;;;;;;;;;;2063302;28;20218;-64
2023/12/18 09:26:51;;;;;;;7.20;4.95;;;;;;;;;;2067618;28;20217;-63
2023/12/18 09:27:53;;;;;;;6.80;5.28;;;;;;;;;;2067597;28;20256;-63
2023/12/18 09:28:56;;;;;;;8.45;4.70;;;;;;;;;;2072817;28;20213;-63
2023/12/18 09:29:57;;;;;;;9.55;4.82;;;;;;;;;;2071319;28;20193;-63
2023/12/18 09:30:59;;;;;;;10.68;5.10;;;;;;;;;;2064616;28;20252;-64
2023/12/18 09:32:02;;;;;;;6.70;4.30;;;;;;;;;;2068275;28;20699;-64
2023/12/18 09:33:03;;;;;;;8.60;5.30;;;;;;;;;;2064189;28;20677;-63
2023/12/18 09:34:05;;;;;;;10.15;6.07;;;;;;;;;;2066885;28;20570;-64
2023/12/18 09:35:07;;;;;;;6.78;5.03;;;;;;;;;;2067647;28;20200;-63
2023/12/18 09:36:08;;;;;;;7.65;5.13;;;;;;;;;;2071043;28;20237;-63
2023/12/18 09:37:09;;;;;;;7.45;4.80;;;;;;;;;;2071240;28;20201;-63
2023/12/18 09:38:11;;;;;;;9.82;4.85;;;;;;;;;;2067895;28;20836;-64
2023/12/18 09:39:14;;;;;;;8.68;4.85;;;;;;;;;;2067568;28;20586;-64
2023/12/18 09:40:16;;;;;;;7.45;5.00;;;;;;;;;;2065832;28;20207;-64
2023/12/18 09:41:24;;;;;;;6.60;4.85;;;;;;;;;;2063275;28;20705;-64
2023/12/18 09:42:25;;;;;;;8.80;4.95;;;;;;;;;;2064395;28;20693;-63
2023/12/18 09:43:27;;;;;;;8.43;5.53;;;;;;;;;;2064040;28;20202;-63
2023/12/18 09:44:31;;;;;;;6.45;4.68;;;;;;;;;;2066201;28;20225;-64
2023/12/18 09:45:33;;;;;;;6.60;4.65;;;;;;;;;;2067280;28;20201;-63
2023/12/18 09:46:34;;;;;;;6.75;3.40;;;;;;;;;;2068100;28;20253;-63
2023/12/18 09:47:35;;;;;;;6.97;4.20;;;;;;;;;;2064099;28;20198;-64
2023/12/18 09:48:37;;;;;;;7.10;4.03;;;;;;;;;;2064426;28;20238;-64
2023/12/18 09:49:38;;;;;;;5.45;3.78;;;;;;;;;;2066953;28;20206;-63
2023/12/18 09:50:40;;;;;;;6.72;3.72;;;;;;;;;;2067464;28;20229;-64
2023/12/18 09:51:43;;;;;;;6.22;3.50;;;;;;;;;;2068348;28;20212;-63
2023/12/18 09:53:12;;;;;;;4.57;3.63;;;;;;;;;;2068220;28;20553;-69
2023/12/18 09:54:13;;;;;;;5.35;3.35;;;;;;;;;;2068379;28;20205;-69
2023/12/18 09:55:17;;;;;;;5.75;3.83;;;;;;;;;;2068028;28;20194;-69
2023/12/18 09:56:20;;;;;;;8.05;4.30;;;;;;;;;;2062459;28;20225;-69
2023/12/18 09:57:23;;;;;;;7.95;4.15;;;;;;;;;;2068037;28;20241;-69
2023/12/18 09:58:25;;;;;;;7.35;4.75;;;;;;;;;;2067994;28;20648;-69
2023/12/18 09:59:26;;;;;;;7.43;4.45;;;;;;;;;;2067570;28;20190;-69
2023/12/18 10:00:28;;;;;;;7.03;4.38;;;;;;;;;;2066283;28;20198;-69
2023/12/18 10:01:30;;;;;;;7.57;4.93;;;;;;;;;;2067089;28;20709;-69
2023/12/18 10:02:32;;;;;;;9.85;6.05;;;;;;;;;;2067450;28;20198;-69
2023/12/18 10:03:34;;;;;;;10.52;6.63;;;;;;;;;;2068686;28;20822;-69
2023/12/18 10:04:35;;;;;;;9.88;7.28;;;;;;;;;;2066365;28;20294;-69
2023/12/18 10:05:36;;;;;;;8.85;6.68;;;;;;;;;;2063456;28;20225;-69
2023/12/18 10:06:38;;;;;;;10.98;6.93;;;;;;;;;;2070013;28;20258;-68
2023/12/18 10:07:40;;;;;;;9.98;6.35;;;;;;;;;;2066085;28;20228;-69
2023/12/18 10:08:41;;;;;;;8.93;5.65;;;;;;;;;;2064886;28;20194;-69
2023/12/18 10:09:43;;;;;;;7.25;5.60;;;;;;;;;;2067746;28;20206;-69
2023/12/18 10:10:44;;;;;;;7.32;5.43;;;;;;;;;;2070553;28;20214;-69
2023/12/18 10:11:49;;;;;;;9.52;5.22;;;;;;;;;;2070523;28;20244;-68
2023/12/18 10:12:57;;;;;;;7.15;5.03;;;;;;;;;;2068111;28;20847;-69
2023/12/18 10:13:58;;;;;;;10.57;7.22;;;;;;;;;;2067022;28;20411;-64
2023/12/18 10:15:00;;;;;;;12.07;7.10;;;;;;;;;;2067078;28;20197;-63
2023/12/18 10:16:01;;;;;;;12.02;7.00;;;;;;;;;;2055939;28;20229;-63
2023/12/18 10:17:03;;;;;;;9.93;5.68;;;;;;;;;;2067513;28;20248;-63
2023/12/18 10:18:04;;;;;;;11.32;5.38;;;;;;;;;;2067054;28;20201;-64
2023/12/18 10:19:06;;;;;;;6.95;4.88;;;;;;;;;;2065735;28;20699;-63
2023/12/18 10:20:09;;;;;;;11.18;5.63;;;;;;;;;;2068080;28;20598;-69
2023/12/18 10:21:11;;;;;;;8.75;5.32;;;;;;;;;;2063270;28;20712;-63
2023/12/18 10:22:12;;;;;;;8.20;5.43;;;;;;;;;;2064255;28;20207;-63
2023/12/18 10:23:14;;;;;;;6.07;4.55;;;;;;;;;;2067664;28;20596;-63
2023/12/18 10:24:15;;;;;;;8.45;5.07;;;;;;;;;;2068452;28;20202;-63
2023/12/18 10:25:19;;;;;;;8.50;5.45;;;;;;;;;;2071102;28;20197;-63
2023/12/18 10:26:21;;;;;;;17.75;7.32;;;;;;;;;;2062541;28;20248;-63
2023/12/18 10:27:22;;;;;;;28.67;12.13;;;;;;;;;;2063853;28;20229;-63
2023/12/18 10:28:24;;;;;;;22.38;10.88;;;;;;;;;;2065895;28;20206;-63
2023/12/18 10:29:25;;;;;;;20.80;9.48;;;;;;;;;;2063897;28;20195;-63
2023/12/18 10:30:29;;;;;;;27.50;10.70;;;;;;;;;;2056219;28;20214;-64
2023/12/18 10:31:31;;;;;;;17.55;8.52;;;;;;;;;;2067575;28;20221;-63
2023/12/18 10:32:35;;;;;;;13.13;6.45;;;;;;;;;;2067884;28;20585;-63
2023/12/18 10:33:37;;;;;;;19.30;5.07;;;;;;;;;;2066374;28;20228;-63
2023/12/18 10:34:38;;;;;;;20.35;4.80;;;;;;;;;;2067130;28;20871;-63
2023/12/18 10:35:40;;;;;;;12.50;4.63;;;;;;;;;;2061859;28;20531;-63
2023/12/18 10:36:42;;;;;;;10.98;3.38;;;;;;;;;;2068713;28;20690;-63
2023/12/18 10:37:47;;;;;;;6.40;3.50;;;;;;;;;;2066812;28;20748;-63
2023/12/18 10:38:52;;;;;;;7.55;3.60;;;;;;;;;;2074149;28;20204;-63
2023/12/18 10:39:58;;;;;;;18.27;4.38;;;;;;;;;;2068739;28;20185;-63
2023/12/18 10:41:01;;;;;;;7.10;4.05;;;;;;;;;;2053916;28;20225;-62
2023/12/18 10:42:06;;;;;;;19.02;4.82;;;;;;;;;;2070977;28;20197;-63
2023/12/18 10:43:27;;;;;;;19.88;4.22;;;;;;;;;;2067644;28;20247;-61
2023/12/18 10:44:29;;;;;;;8.27;3.88;;;;;;;;;;2067070;28;20202;-63
2023/12/18 10:45:32;;;;;;;10.90;3.75;;;;;;;;;;2062324;28;20244;-63
2023/12/18 10:46:34;;;;;;;8.55;3.30;;;;;;;;;;2065489;28;20198;-63
2023/12/18 10:47:35;;;;;;;8.20;2.95;;;;;;;;;;2063327;28;20256;-63
2023/12/18 10:48:37;;;;;;;5.97;2.22;;;;;;;;;;2063465;28;20233;-63
2023/12/18 10:49:39;;;;;;;9.07;3.90;;;;;;;;;;2068586;28;20217;-63
2023/12/18 10:50:41;;;;;;;7.07;3.15;;;;;;;;;;2057940;28;20715;-63
2023/12/18 10:51:44;;;;;;;6.18;2.80;;;;;;;;;;2069792;28;20643;-63
2023/12/18 10:52:46;;;;;;;6.28;2.90;;;;;;;;;;2068734;28;20202;-63
2023/12/18 10:53:48;;;;;;;8.52;2.97;;;;;;;;;;2068623;28;20284;-63
2023/12/18 10:54:50;;;;;;;7.25;3.03;;;;;;;;;;2063680;28;20225;-63
2023/12/18 10:55:52;;;;;;;4.10;2.60;;;;;;;;;;2065182;28;20217;-63
2023/12/18 10:56:54;;;;;;;8.38;3.08;;;;;;;;;;2067217;28;20739;-62
2023/12/18 10:57:58;;;;;;;5.20;2.35;;;;;;;;;;2067262;28;20199;-63
2023/12/18 10:58:59;;;;;;;4.35;2.95;;;;;;;;;;2067778;28;20193;-62
2023/12/18 11:00:01;;;;;;;7.82;3.60;;;;;;;;;;2066093;28;20282;-63
2023/12/18 11:01:07;;;;;;;8.23;3.95;;;;;;;;;;2069315;28;20595;-63
2023/12/18 11:02:10;;;;;;;6.35;2.42;;;;;;;;;;2070553;28;20285;-62
2023/12/18 11:03:13;;;;;;;7.60;3.60;;;;;;;;;;2066903;28;20262;-63
2023/12/18 11:04:16;;;;;;;5.88;3.58;;;;;;;;;;2065912;28;20577;-63
2023/12/18 11:05:20;;;;;;;8.45;3.72;;;;;;;;;;2063694;28;20190;-63
2023/12/18 11:06:21;;;;;;;6.93;3.38;;;;;;;;;;2062704;28;20273;-62
2023/12/18 11:07:25;;;;;;;7.35;3.35;;;;;;;;;;2065669;28;20195;-63
2023/12/18 11:08:27;;;;;;;5.55;2.60;;;;;;;;;;2070855;28;20209;-63
2023/12/18 11:09:28;;;;;;;7.97;2.78;;;;;;;;;;2070971;28;20247;-63
2023/12/18 11:10:29;;;;;;;4.47;2.60;;;;;;;;;;2063398;28;20555;-63
2023/12/18 11:11:33;;;;;;;6.20;2.47;;;;;;;;;;2061669;28;20229;-63
2023/12/18 11:12:36;;;;;;;5.95;3.15;;;;;;;;;;2070879;28;20228;-63
2023/12/18 11:13:43;;;;;;;5.15;2.58;;;;;;;;;;2071184;28;20284;-63
2023/12/18 11:14:51;;;;;;;6.43;2.67;;;;;;;;;;2063516;28;20256;-63
2023/12/18 11:16:01;;;;;;;5.78;2.33;;;;;;;;;;2061621;28;20229;-63
2023/12/18 11:17:05;;;;;;;6.47;2.25;;;;;;;;;;2064544;28;20206;-63
2023/12/18 11:18:13;;;;;;;6.00;2.40;;;;;;;;;;2068002;28;20202;-64
2023/12/18 11:19:31;;;;;;;4.90;2.45;;;;;;;;;;2068002;28;20190;-63
2023/12/18 11:20:36;;;;;;;7.18;3.03;;;;;;;;;;2065458;28;20205;-64
2023/12/18 11:21:39;;;;;;;4.47;2.17;;;;;;;;;;2066398;28;20272;-63
2023/12/18 11:22:47;;;;;;;3.85;1.92;;;;;;;;;;2070940;28;20206;-63
2023/12/18 11:23:51;;;;;;;6.32;3.03;;;;;;;;;;2069886;28;20200;-63
2023/12/18 11:25:05;;;;;;;3.90;2.58;;;;;;;;;;2064467;28;20293;-63
2023/12/18 11:26:10;;;;;;;8.95;2.80;;;;;;;;;;2063425;28;20229;-64
2023/12/18 11:27:12;;;;;;;12.32;3.28;;;;;;;;;;2070916;28;20204;-64
2023/12/18 11:28:15;;;;;;;7.75;3.00;;;;;;;;;;2068913;28;20638;-64
2023/12/18 11:29:31;;;;;;;7.18;3.40;;;;;;;;;;2066757;28;20202;-63
2023/12/18 11:30:39;;;;;;;5.03;2.63;;;;;;;;;;2065849;28;20308;-64
2023/12/18 11:31:41;;;;;;;4.85;2.97;;;;;;;;;;2066858;28;20281;-64
2023/12/18 11:32:45;;;;;;;7.10;2.88;;;;;;;;;;2065573;28;20286;-63
2023/12/18 11:34:04;;;;;;;5.45;3.33;;;;;;;;;;2070004;28;20202;-64
2023/12/18 11:35:10;;;;;;;5.88;3.00;;;;;;;;;;2070041;28;20280;-63
2023/12/18 11:36:11;;;;;;;9.73;3.40;;;;;;;;;;2066810;28;20213;-63
2023/12/18 11:37:17;;;;;;;6.88;3.45;;;;;;;;;;2067427;28;20198;-63
2023/12/18 11:38:19;;;;;;;6.32;3.20;;;;;;;;;;2064663;28;20672;-63
2023/12/18 11:39:21;;;;;;;8.07;3.25;;;;;;;;;;2065799;28;20241;-63
2023/12/18 11:40:31;;;;;;;5.40;3.83;;;;;;;;;;2068116;28;20525;-63
2023/12/18 11:41:40;;;;;;;8.80;3.08;;;;;;;;;;2063883;28;20317;-63
2023/12/18 11:42:45;;;;;;;5.15;2.95;;;;;;;;;;2067433;28;20201;-63
2023/12/18 11:43:49;;;;;;;4.68;2.90;;;;;;;;;;2068250;28;20198;-64
2023/12/18 11:44:52;;;;;;;5.95;2.80;;;;;;;;;;2067691;28;20589;-63
2023/12/18 11:45:58;;;;;;;8.05;2.90;;;;;;;;;;2065964;28;20228;-64
2023/12/18 11:47:16;;;;;;;5.18;3.00;;;;;;;;;;2065711;28;20201;-64
2023/12/18 11:48:18;;;;;;;6.47;2.72;;;;;;;;;;2065742;28;20198;-63
2023/12/18 11:49:20;;;;;;;6.10;3.00;;;;;;;;;;2067398;28;20198;-63
2023/12/18 11:50:24;;;;;;;5.10;2.70;;;;;;;;;;2070217;28;20198;-63
2023/12/18 11:51:25;;;;;;;7.80;3.28;;;;;;;;;;2064876;28;20218;-63
2023/12/18 11:52:26;;;;;;;13.93;3.20;;;;;;;;;;2066838;28;20201;-63
2023/12/18 11:53:32;;;;;;;4.47;3.03;;;;;;;;;;2065913;28;20194;-63
2023/12/18 11:54:34;;;;;;;4.65;2.38;;;;;;;;;;2066377;28;20189;-63
2023/12/18 11:55:40;;;;;;;5.97;2.75;;;;;;;;;;2064916;28;20191;-63
2023/12/18 11:56:42;;;;;;;7.72;2.90;;;;;;;;;;2065660;28;20204;-64
2023/12/18 11:57:44;;;;;;;4.82;3.15;;;;;;;;;;2067205;28;20620;-64
2023/12/18 11:58:46;;;;;;;6.63;2.50;;;;;;;;;;2068920;28;20236;-63
2023/12/18 11:59:48;;;;;;;3.53;2.50;;;;;;;;;;2066534;28;20191;-64
2023/12/18 12:00:49;;;;;;;3.25;2.03;;;;;;;;;;2062774;28;20898;-64
2023/12/18 12:01:52;;;;;;;2.85;2.03;;;;;;;;;;2067175;28;20220;-63
2023/12/18 12:02:53;;;;;;;4.32;2.47;;;;;;;;;;2066878;28;20198;-64
2023/12/18 12:03:56;;;;;;;3.47;1.90;;;;;;;;;;2066502;28;20864;-61
2023/12/18 12:04:58;;;;;;;4.43;2.47;;;;;;;;;;2066880;28;20200;-62
2023/12/18 12:06:02;;;;;;;7.40;2.60;;;;;;;;;;2066439;28;20217;-61
2023/12/18 12:07:03;;;;;;;5.18;2.80;;;;;;;;;;2063477;28;20613;-62
2023/12/18 12:08:05;;;;;;;5.47;1.75;;;;;;;;;;2063643;28;20252;-61
2023/12/18 12:09:06;;;;;;;5.15;2.85;;;;;;;;;;2065717;28;20285;-61
2023/12/18 12:10:08;;;;;;;4.93;2.33;;;;;;;;;;2065973;28;20205;-62
2023/12/18 12:11:09;;;;;;;6.25;2.60;;;;;;;;;;2058213;28;20229;-61
2023/12/18 12:12:12;;;;;;;3.00;1.83;;;;;;;;;;2065797;28;20204;-62
2023/12/18 12:13:18;;;;;;;7.93;2.15;;;;;;;;;;2065257;28;20202;-62
2023/12/18 12:14:19;;;;;;;6.45;2.38;;;;;;;;;;2063187;28;20194;-62
2023/12/18 12:15:22;;;;;;;5.80;2.17;;;;;;;;;;2064281;28;20213;-63
2023/12/18 12:16:23;;;;;;;6.88;2.35;;;;;;;;;;2066350;28;20644;-62
2023/12/18 12:17:27;;;;;;;8.30;3.53;;;;;;;;;;2066908;28;20623;-62
2023/12/18 12:18:33;;;;;;;4.25;2.72;;;;;;;;;;2066767;28;20672;-62
2023/12/18 12:19:35;;;;;;;10.05;4.50;;;;;;;;;;2066991;28;20236;-61
2023/12/18 12:20:37;;;;;;;8.52;5.18;;;;;;;;;;2064307;28;20205;-61
2023/12/18 12:21:38;;;;;;;9.85;5.57;;;;;;;;;;2058683;28;20248;-62
2023/12/18 12:22:48;;;;;;;10.25;5.63;;;;;;;;;;2066800;28;20205;-62
2023/12/18 12:23:49;;;;;;;8.25;5.55;;;;;;;;;;2065928;28;20205;-61
2023/12/18 12:24:51;;;;;;;10.10;5.13;;;;;;;;;;2067625;28;20198;-62
2023/12/18 12:25:57;;;;;;;11.52;4.90;;;;;;;;;;2065526;28;20635;-61
2023/12/18 12:26:59;;;;;;;8.23;5.22;;;;;;;;;;2065703;28;20206;-61
2023/12/18 12:28:00;;;;;;;7.47;4.07;;;;;;;;;;2064659;28;20613;-62
2023/12/18 12:29:01;;;;;;;8.88;4.72;;;;;;;;;;2063228;28;20867;-61
2023/12/18 12:30:03;;;;;;;6.15;3.65;;;;;;;;;;2066238;28;20205;-62
2023/12/18 12:31:04;;;;;;;6.25;3.90;;;;;;;;;;2067188;28;20237;-64
2023/12/18 12:32:06;;;;;;;7.10;3.80;;;;;;;;;;2068175;28;20193;-61
2023/12/18 12:33:18;;;;;;;7.63;4.10;;;;;;;;;;2066140;28;20681;-61
2023/12/18 12:34:20;;;;;;;6.13;3.40;;;;;;;;;;2063194;28;20198;-62
2023/12/18 12:35:21;;;;;;;5.30;3.63;;;;;;;;;;2064265;28;20269;-61
2023/12/18 12:36:24;;;;;;;5.70;3.00;;;;;;;;;;2049442;28;20245;-61
2023/12/18 12:37:25;;;;;;;5.15;3.30;;;;;;;;;;2065254;28;20198;-61
2023/12/18 12:38:26;;;;;;;8.80;3.65;;;;;;;;;;2064643;28;20529;-61
2023/12/18 12:39:28;;;;;;;6.60;3.40;;;;;;;;;;2065005;28;20282;-61
2023/12/18 12:40:39;;;;;;;9.40;3.45;;;;;;;;;;2067889;28;20190;-66
2023/12/18 12:41:41;;;;;;;9.38;3.42;;;;;;;;;;2068348;28;20222;-66
2023/12/18 12:42:43;;;;;;;6.25;3.78;;;;;;;;;;2069912;28;20198;-66
2023/12/18 12:43:44;;;;;;;8.48;3.85;;;;;;;;;;2064467;28;20206;-66
2023/12/18 12:44:46;;;;;;;7.30;3.92;;;;;;;;;;2065631;28;20233;-68
2023/12/18 12:45:49;;;;;;;6.80;3.13;;;;;;;;;;2067226;28;20199;-66
2023/12/18 12:46:50;;;;;;;7.15;4.25;;;;;;;;;;2072112;28;20202;-66
2023/12/18 12:47:55;;;;;;;6.18;4.15;;;;;;;;;;2071926;28;20545;-66
2023/12/18 12:48:57;;;;;;;9.95;4.30;;;;;;;;;;2068218;28;20716;-66
2023/12/18 12:50:03;;;;;;;10.85;3.88;;;;;;;;;;2068788;28;20198;-66
2023/12/18 12:51:05;;;;;;;7.75;3.45;;;;;;;;;;2068011;28;20234;-61
2023/12/18 12:52:07;;;;;;;10.75;4.32;;;;;;;;;;2068022;28;20211;-62
2023/12/18 12:53:11;;;;;;;9.25;4.80;;;;;;;;;;2071987;28;20197;-61
2023/12/18 12:54:13;;;;;;;10.75;5.45;;;;;;;;;;2071544;28;20194;-61
2023/12/18 12:55:15;;;;;;;8.43;4.97;;;;;;;;;;2066438;28;20209;-61
2023/12/18 12:56:17;;;;;;;8.38;4.43;;;;;;;;;;2066092;28;20279;-61
2023/12/18 12:57:18;;;;;;;12.98;4.60;;;;;;;;;;2069148;28;20217;-61
2023/12/18 12:58:21;;;;;;;7.80;4.80;;;;;;;;;;2068762;28;20205;-61
2023/12/18 12:59:22;;;;;;;9.70;5.10;;;;;;;;;;2066993;28;20198;-62
2023/12/18 13:00:24;;;;;;;10.02;4.43;;;;;;;;;;2064232;28;20554;-61
2023/12/18 13:01:27;;;;;;;6.88;4.85;;;;;;;;;;2067406;28;20244;-61
2023/12/18 13:02:29;;;;;;;6.18;3.40;;;;;;;;;;2069714;28;20560;-61
2023/12/18 13:03:30;;;;;;;8.30;3.85;;;;;;;;;;2070648;28;20197;-62
2023/12/18 13:04:32;;;;;;;6.05;3.88;;;;;;;;;;2067607;28;20637;-62
2023/12/18 13:05:33;;;;;;;8.13;3.63;;;;;;;;;;2067076;28;20201;-61
2023/12/18 13:06:35;;;;;;;9.20;3.90;;;;;;;;;;2060897;28;20847;-62
2023/12/18 13:07:36;;;;;;;45.58;25.95;;;;;;;;;;2067351;28;20252;-61
2023/12/18 13:08:39;;;;;;;9.15;5.30;;;;;;;;;;2066678;28;20198;-60
2023/12/18 13:09:40;;;;;;;7.70;4.30;;;;;;;;;;2067928;28;20210;-60
2023/12/18 13:10:42;;;;;;;5.03;3.50;;;;;;;;;;2065871;28;20205;-61
2023/12/18 13:11:43;;;;;;;6.60;4.57;;;;;;;;;;2066648;28;20561;-61
2023/12/18 13:12:45;;;;;;;5.88;3.78;;;;;;;;;;2065612;28;20281;-60
2023/12/18 13:13:46;;;;;;;9.48;3.47;;;;;;;;;;2068113;28;20203;-62
2023/12/18 13:14:48;;;;;;;4.70;3.10;;;;;;;;;;2064365;28;20671;-62
2023/12/18 13:15:50;;;;;;;5.03;3.30;;;;;;;;;;2066036;28;20224;-62
2023/12/18 13:16:51;;;;;;;13.70;4.00;;;;;;;;;;2067230;28;20222;-61
2023/12/18 13:17:54;;;;;;;8.32;3.60;;;;;;;;;;2071777;28;20202;-61
2023/12/18 13:18:58;;;;;;;5.55;3.20;;;;;;;;;;2070887;28;20193;-63
2023/12/18 13:20:00;;;;;;;9.10;4.07;;;;;;;;;;2067478;28;20191;-61
2023/12/18 13:21:16;;;;;;;9.65;3.63;;;;;;;;;;2066734;28;20320;-62
2023/12/18 13:22:17;;;;;;;4.75;3.42;;;;;;;;;;2069275;28;20628;-62
2023/12/18 13:23:19;;;;;;;10.95;3.40;;;;;;;;;;2067899;28;20233;-61
2023/12/18 13:24:20;;;;;;;7.78;4.22;;;;;;;;;;2067443;28;20545;-62
2023/12/18 13:25:21;;;;;;;5.90;3.85;;;;;;;;;;2067818;28;20641;-62
2023/12/18 13:26:23;;;;;;;6.30;3.60;;;;;;;;;;2070337;28;20217;-62
2023/12/18 13:27:26;;;;;;;6.97;4.00;;;;;;;;;;2071899;28;20205;-61
2023/12/18 13:28:29;;;;;;;5.30;3.95;;;;;;;;;;2067149;28;20194;-61
2023/12/18 13:29:35;;;;;;;5.22;3.15;;;;;;;;;;2067422;28;20578;-62
2023/12/18 13:30:36;;;;;;;7.72;3.92;;;;;;;;;;2066874;28;20190;-61
2023/12/18 13:31:38;;;;;;;7.15;4.20;;;;;;;;;;2066600;28;20222;-62
2023/12/18 13:32:40;;;;;;;7.18;3.83;;;;;;;;;;2066870;28;20198;-61
2023/12/18 13:33:41;;;;;;;5.07;3.60;;;;;;;;;;2068321;28;20744;-62
2023/12/18 13:34:43;;;;;;;7.50;3.45;;;;;;;;;;2067968;28;20672;-61
2023/12/18 13:35:45;;;;;;;7.05;3.72;;;;;;;;;;2069271;28;20293;-62
2023/12/18 13:36:47;;;;;;;5.47;3.90;;;;;;;;;;2066983;28;20575;-62
2023/12/18 13:37:49;;;;;;;5.30;3.83;;;;;;;;;;2067607;28;20195;-61
2023/12/18 13:38:51;;;;;;;7.20;3.13;;;;;;;;;;2067467;28;20206;-62
2023/12/18 13:39:53;;;;;;;5.50;3.80;;;;;;;;;;2067972;28;20190;-62
2023/12/18 13:40:55;;;;;;;6.75;3.92;;;;;;;;;;2067978;28;20191;-62
2023/12/18 13:41:57;;;;;;;10.07;4.63;;;;;;;;;;2066929;28;20205;-61
2023/12/18 13:42:58;;;;;;;7.70;4.50;;;;;;;;;;2064064;28;20298;-62
2023/12/18 13:44:01;;;;;;;9.52;4.65;;;;;;;;;;2065638;28;20233;-62
2023/12/18 13:45:03;;;;;;;7.18;4.20;;;;;;;;;;2068540;28;20269;-64
2023/12/18 13:46:04;;;;;;;7.07;4.50;;;;;;;;;;2065502;28;20627;-64
2023/12/18 13:47:06;;;;;;;7.65;4.38;;;;;;;;;;2067905;28;20289;-65
2023/12/18 13:48:08;;;;;;;7.65;3.85;;;;;;;;;;2063886;28;20293;-65
2023/12/18 13:49:10;;;;;;;6.68;3.67;;;;;;;;;;2066395;28;20197;-65
2023/12/18 13:50:11;;;;;;;7.75;3.08;;;;;;;;;;2063762;28;20202;-65
2023/12/18 13:51:13;;;;;;;5.57;3.85;;;;;;;;;;2066133;28;20230;-62
2023/12/18 13:52:14;;;;;;;6.05;3.53;;;;;;;;;;2064776;28;20246;-62
2023/12/18 13:53:16;;;;;;;6.20;4.03;;;;;;;;;;2071004;28;20225;-62
2023/12/18 13:54:19;;;;;;;5.13;3.35;;;;;;;;;;2067396;28;20281;-62
2023/12/18 13:55:22;;;;;;;6.35;3.13;;;;;;;;;;2067728;28;20198;-62
2023/12/18 13:56:26;;;;;;;9.70;3.50;;;;;;;;;;2068391;28;20903;-62
2023/12/18 13:57:27;;;;;;;7.07;3.60;;;;;;;;;;2067965;28;20263;-62
2023/12/18 13:58:43;;;;;;;6.82;3.03;;;;;;;;;;2066583;28;20198;-62
2023/12/18 13:59:44;;;;;;;5.22;2.95;;;;;;;;;;2064070;28;20547;-62
2023/12/18 14:00:47;;;;;;;5.38;3.47;;;;;;;;;;2063918;28;20619;-62
2023/12/18 14:01:48;;;;;;;9.45;2.97;;;;;;;;;;2066394;28;20199;-62
2023/12/18 14:02:49;;;;;;;6.93;3.38;;;;;;;;;;2066943;28;20807;-62